sensor_id;sensor_type;location;lat;lon;timestamp;temperature;humidity
29341;DHT22;16337;59.536;13.468;2024-02-14T00:01:04;-3.70;99.90
29341;DHT22;16337;59.536;13.468;2024-02-14T00:03:29;-3.70;99.90
29341;DHT22;16337;59.536;13.468;2024-02-14T00:05:55;-3.70;99.90
29341;DHT22;16337;59.536;13.468;2024-02-14T00:08:22;-3.70;99.90
29341;DHT22;16337;59.536;13.468;2024-02-14T00:10:48;-3.80;99.90
29341;DHT22;16337;59.536;13.468;2024-02-14T00:13:23;-3.80;99.90
29341;DHT22;16337;59.536;13.468;2024-02-14T00:15:49;-3.90;99.90
29341;DHT22;16337;59.536;13.468;2024-02-14T00:18:14;-4.00;99.90
29341;DHT22;16337;59.536;13.468;2024-02-14T00:20:47;-4.00;99.90
29341;DHT22;16337;59.536;13.468;2024-02-14T00:23:13;-4.00;99.90
29341;DHT22;16337;59.536;13.468;2024-02-14T00:25:39;-4.00;99.90
29341;DHT22;16337;59.536;13.468;2024-02-14T00:28:20;-4.00;99.90
29341;DHT22;16337;59.536;13.468;2024-02-14T00:30:55;-3.90;99.90
29341;DHT22;16337;59.536;13.468;2024-02-14T00:33:20;-3.90;99.90
29341;DHT22;16337;59.536;13.468;2024-02-14T00:35:56;-3.90;99.90
29341;DHT22;16337;59.536;13.468;2024-02-14T00:38:37;-3.80;99.90
29341;DHT22;16337;59.536;13.468;2024-02-14T00:41:06;-3.80;99.90
29341;DHT22;16337;59.536;13.468;2024-02-14T00:43:40;-3.80;99.90
29341;DHT22;16337;59.536;13.468;2024-02-14T00:46:25;-3.70;99.90
29341;DHT22;16337;59.536;13.468;2024-02-14T00:48:53;-3.70;99.90
29341;DHT22;16337;59.536;13.468;2024-02-14T00:51:21;-3.70;99.90
29341;DHT22;16337;59.536;13.468;2024-02-14T00:53:46;-3.70;99.90
29341;DHT22;16337;59.536;13.468;2024-02-14T00:56:12;-3.60;99.90
29341;DHT22;16337;59.536;13.468;2024-02-14T00:58:37;-3.60;99.90
29341;DHT22;16337;59.536;13.468;2024-02-14T01:01:04;-3.60;99.90
29341;DHT22;16337;59.536;13.468;2024-02-14T01:03:31;-3.50;99.90
29341;DHT22;16337;59.536;13.468;2024-02-14T01:05:56;-3.50;99.90
29341;DHT22;16337;59.536;13.468;2024-02-14T01:08:22;-3.50;99.90
29341;DHT22;16337;59.536;13.468;2024-02-14T01:10:48;-3.50;99.90
29341;DHT22;16337;59.536;13.468;2024-02-14T01:13:16;-3.40;99.90
29341;DHT22;16337;59.536;13.468;2024-02-14T01:15:41;-3.40;99.90
29341;DHT22;16337;59.536;13.468;2024-02-14T01:18:07;-3.40;99.90
29341;DHT22;16337;59.536;13.468;2024-02-14T01:20:32;-3.40;99.90
29341;DHT22;16337;59.536;13.468;2024-02-14T01:22:58;-3.50;99.90
29341;DHT22;16337;59.536;13.468;2024-02-14T01:25:50;-3.50;99.90
29341;DHT22;16337;59.536;13.468;2024-02-14T01:28:20;-3.50;99.90
29341;DHT22;16337;59.536;13.468;2024-02-14T01:30:46;-3.40;99.90
29341;DHT22;16337;59.536;13.468;2024-02-14T01:33:12;-3.40;99.90
29341;DHT22;16337;59.536;13.468;2024-02-14T01:35:38;-3.30;99.90
29341;DHT22;16337;59.536;13.468;2024-02-14T01:38:05;-3.30;99.90
29341;DHT22;16337;59.536;13.468;2024-02-14T01:40:31;-3.40;99.90
29341;DHT22;16337;59.536;13.468;2024-02-14T01:42:57;-3.40;99.90
29341;DHT22;16337;59.536;13.468;2024-02-14T01:45:22;-3.40;99.90
29341;DHT22;16337;59.536;13.468;2024-02-14T01:47:49;-3.40;99.90
29341;DHT22;16337;59.536;13.468;2024-02-14T01:50:15;-3.30;99.90
29341;DHT22;16337;59.536;13.468;2024-02-14T01:52:41;-3.30;99.90
29341;DHT22;16337;59.536;13.468;2024-02-14T01:55:11;-3.30;99.90
29341;DHT22;16337;59.536;13.468;2024-02-14T01:57:38;-3.20;99.90
29341;DHT22;16337;59.536;13.468;2024-02-14T02:00:06;-3.30;99.90
29341;DHT22;16337;59.536;13.468;2024-02-14T02:02:36;-3.30;99.90
29341;DHT22;16337;59.536;13.468;2024-02-14T02:05:03;-3.30;99.90
29341;DHT22;16337;59.536;13.468;2024-02-14T02:07:29;-3.30;99.90
29341;DHT22;16337;59.536;13.468;2024-02-14T02:09:56;-3.30;99.90
29341;DHT22;16337;59.536;13.468;2024-02-14T02:12:22;-3.30;99.90
29341;DHT22;16337;59.536;13.468;2024-02-14T02:14:52;-3.30;99.90
29341;DHT22;16337;59.536;13.468;2024-02-14T02:17:17;-3.20;99.90
29341;DHT22;16337;59.536;13.468;2024-02-14T02:19:43;-3.20;99.90
29341;DHT22;16337;59.536;13.468;2024-02-14T02:22:09;-3.20;99.90
29341;DHT22;16337;59.536;13.468;2024-02-14T02:24:35;-3.20;99.90
29341;DHT22;16337;59.536;13.468;2024-02-14T02:27:02;-3.30;99.90
29341;DHT22;16337;59.536;13.468;2024-02-14T02:29:27;-3.30;99.90
29341;DHT22;16337;59.536;13.468;2024-02-14T02:31:53;-3.30;99.90
29341;DHT22;16337;59.536;13.468;2024-02-14T02:34:18;-3.30;99.90
29341;DHT22;16337;59.536;13.468;2024-02-14T02:36:44;-3.30;99.90
29341;DHT22;16337;59.536;13.468;2024-02-14T02:39:12;-3.30;99.90
29341;DHT22;16337;59.536;13.468;2024-02-14T02:41:39;-3.30;99.90
29341;DHT22;16337;59.536;13.468;2024-02-14T02:44:05;-3.20;99.90
29341;DHT22;16337;59.536;13.468;2024-02-14T02:46:32;-3.20;99.90
29341;DHT22;16337;59.536;13.468;2024-02-14T02:48:57;-3.30;99.90
29341;DHT22;16337;59.536;13.468;2024-02-14T02:51:24;-3.30;99.90
29341;DHT22;16337;59.536;13.468;2024-02-14T02:53:50;-3.30;99.90
29341;DHT22;16337;59.536;13.468;2024-02-14T02:56:17;-3.30;99.90
29341;DHT22;16337;59.536;13.468;2024-02-14T02:58:44;-3.20;99.90
29341;DHT22;16337;59.536;13.468;2024-02-14T03:01:10;-3.20;99.90
29341;DHT22;16337;59.536;13.468;2024-02-14T03:03:37;-3.20;99.90
29341;DHT22;16337;59.536;13.468;2024-02-14T03:06:04;-3.20;99.90
29341;DHT22;16337;59.536;13.468;2024-02-14T03:08:30;-3.20;99.90
29341;DHT22;16337;59.536;13.468;2024-02-14T03:10:56;-3.20;99.90
29341;DHT22;16337;59.536;13.468;2024-02-14T03:13:25;-3.10;99.90
29341;DHT22;16337;59.536;13.468;2024-02-14T03:15:52;-3.10;99.90
29341;DHT22;16337;59.536;13.468;2024-02-14T03:18:18;-3.10;99.90
29341;DHT22;16337;59.536;13.468;2024-02-14T03:20:43;-3.00;99.90
29341;DHT22;16337;59.536;13.468;2024-02-14T03:23:09;-3.00;99.90
29341;DHT22;16337;59.536;13.468;2024-02-14T03:25:35;-3.00;99.90
29341;DHT22;16337;59.536;13.468;2024-02-14T03:28:02;-3.00;99.90
29341;DHT22;16337;59.536;13.468;2024-02-14T03:30:32;-3.00;99.90
29341;DHT22;16337;59.536;13.468;2024-02-14T03:32:59;-3.00;99.90
29341;DHT22;16337;59.536;13.468;2024-02-14T03:35:24;-3.00;99.90
29341;DHT22;16337;59.536;13.468;2024-02-14T03:37:52;-3.00;99.90
29341;DHT22;16337;59.536;13.468;2024-02-14T03:40:18;-3.00;99.90
29341;DHT22;16337;59.536;13.468;2024-02-14T03:42:47;-3.00;99.90
29341;DHT22;16337;59.536;13.468;2024-02-14T03:45:13;-3.00;99.90
29341;DHT22;16337;59.536;13.468;2024-02-14T03:47:39;-2.90;99.90
29341;DHT22;16337;59.536;13.468;2024-02-14T03:50:06;-2.90;99.90
29341;DHT22;16337;59.536;13.468;2024-02-14T03:52:32;-2.90;99.90
29341;DHT22;16337;59.536;13.468;2024-02-14T03:54:59;-2.90;99.90
29341;DHT22;16337;59.536;13.468;2024-02-14T03:57:25;-3.00;99.90
29341;DHT22;16337;59.536;13.468;2024-02-14T03:59:54;-3.00;99.90
29341;DHT22;16337;59.536;13.468;2024-02-14T04:02:21;-3.00;99.90
29341;DHT22;16337;59.536;13.468;2024-02-14T04:04:49;-3.00;99.90
29341;DHT22;16337;59.536;13.468;2024-02-14T04:07:14;-3.00;99.90
29341;DHT22;16337;59.536;13.468;2024-02-14T04:09:40;-3.00;99.90
29341;DHT22;16337;59.536;13.468;2024-02-14T04:12:06;-3.00;99.90
29341;DHT22;16337;59.536;13.468;2024-02-14T04:14:31;-3.00;99.90
29341;DHT22;16337;59.536;13.468;2024-02-14T04:16:57;-2.90;99.90
29341;DHT22;16337;59.536;13.468;2024-02-14T04:19:23;-2.90;99.90
29341;DHT22;16337;59.536;13.468;2024-02-14T04:21:48;-2.90;99.90
29341;DHT22;16337;59.536;13.468;2024-02-14T04:24:14;-2.90;99.90
29341;DHT22;16337;59.536;13.468;2024-02-14T04:26:40;-2.90;99.90
29341;DHT22;16337;59.536;13.468;2024-02-14T04:29:05;-3.00;99.90
29341;DHT22;16337;59.536;13.468;2024-02-14T04:31:33;-3.00;99.90
29341;DHT22;16337;59.536;13.468;2024-02-14T04:33:58;-3.00;99.90
29341;DHT22;16337;59.536;13.468;2024-02-14T04:36:24;-3.10;99.90
29341;DHT22;16337;59.536;13.468;2024-02-14T04:38:50;-3.10;99.90
29341;DHT22;16337;59.536;13.468;2024-02-14T04:41:17;-3.10;99.90
29341;DHT22;16337;59.536;13.468;2024-02-14T04:43:43;-3.20;99.90
29341;DHT22;16337;59.536;13.468;2024-02-14T04:46:08;-3.10;99.90
29341;DHT22;16337;59.536;13.468;2024-02-14T04:48:35;-3.10;99.90
29341;DHT22;16337;59.536;13.468;2024-02-14T04:51:02;-3.10;99.90
29341;DHT22;16337;59.536;13.468;2024-02-14T04:53:29;-3.00;99.90
29341;DHT22;16337;59.536;13.468;2024-02-14T04:55:55;-3.00;99.90
29341;DHT22;16337;59.536;13.468;2024-02-14T04:58:21;-3.00;99.90
29341;DHT22;16337;59.536;13.468;2024-02-14T05:00:46;-3.00;99.90
29341;DHT22;16337;59.536;13.468;2024-02-14T05:03:12;-3.10;99.90
29341;DHT22;16337;59.536;13.468;2024-02-14T05:05:38;-3.10;99.90
29341;DHT22;16337;59.536;13.468;2024-02-14T05:08:04;-3.10;99.90
29341;DHT22;16337;59.536;13.468;2024-02-14T05:10:30;-3.20;99.90
29341;DHT22;16337;59.536;13.468;2024-02-14T05:12:57;-3.20;99.90
29341;DHT22;16337;59.536;13.468;2024-02-14T05:15:22;-3.20;99.90
29341;DHT22;16337;59.536;13.468;2024-02-14T05:17:49;-3.20;99.90
29341;DHT22;16337;59.536;13.468;2024-02-14T05:20:15;-3.20;99.90
29341;DHT22;16337;59.536;13.468;2024-02-14T05:22:41;-3.20;99.90
29341;DHT22;16337;59.536;13.468;2024-02-14T05:25:07;-3.20;99.90
29341;DHT22;16337;59.536;13.468;2024-02-14T05:27:34;-3.20;99.90
29341;DHT22;16337;59.536;13.468;2024-02-14T05:30:02;-3.20;99.90
29341;DHT22;16337;59.536;13.468;2024-02-14T05:32:31;-3.20;99.90
29341;DHT22;16337;59.536;13.468;2024-02-14T05:34:57;-3.10;99.90
29341;DHT22;16337;59.536;13.468;2024-02-14T05:37:23;-3.10;99.90
29341;DHT22;16337;59.536;13.468;2024-02-14T05:39:49;-3.00;99.90
29341;DHT22;16337;59.536;13.468;2024-02-14T05:42:15;-3.00;99.90
29341;DHT22;16337;59.536;13.468;2024-02-14T05:44:42;-2.90;99.90
29341;DHT22;16337;59.536;13.468;2024-02-14T05:47:08;-2.90;99.90
29341;DHT22;16337;59.536;13.468;2024-02-14T05:49:34;-2.80;99.90
29341;DHT22;16337;59.536;13.468;2024-02-14T05:52:00;-2.80;99.90
29341;DHT22;16337;59.536;13.468;2024-02-14T05:54:26;-2.80;99.90
29341;DHT22;16337;59.536;13.468;2024-02-14T05:56:51;-2.70;99.90
29341;DHT22;16337;59.536;13.468;2024-02-14T05:59:17;-2.70;99.90
29341;DHT22;16337;59.536;13.468;2024-02-14T06:01:42;-2.70;99.90
29341;DHT22;16337;59.536;13.468;2024-02-14T06:04:08;-2.70;99.90
29341;DHT22;16337;59.536;13.468;2024-02-14T06:06:34;-2.70;99.90
29341;DHT22;16337;59.536;13.468;2024-02-14T06:08:59;-2.70;99.90
29341;DHT22;16337;59.536;13.468;2024-02-14T06:11:25;-2.70;99.90
29341;DHT22;16337;59.536;13.468;2024-02-14T06:13:51;-2.70;99.90
29341;DHT22;16337;59.536;13.468;2024-02-14T06:16:16;-2.70;99.90
29341;DHT22;16337;59.536;13.468;2024-02-14T06:18:42;-2.70;99.90
29341;DHT22;16337;59.536;13.468;2024-02-14T06:21:09;-2.70;99.90
29341;DHT22;16337;59.536;13.468;2024-02-14T06:23:35;-2.70;99.90
29341;DHT22;16337;59.536;13.468;2024-02-14T06:26:02;-2.70;99.90
29341;DHT22;16337;59.536;13.468;2024-02-14T06:28:29;-2.70;99.90
29341;DHT22;16337;59.536;13.468;2024-02-14T06:30:55;-2.60;99.90
29341;DHT22;16337;59.536;13.468;2024-02-14T06:33:20;-2.60;99.90
29341;DHT22;16337;59.536;13.468;2024-02-14T06:35:46;-2.60;99.90
29341;DHT22;16337;59.536;13.468;2024-02-14T06:38:12;-2.60;99.90
29341;DHT22;16337;59.536;13.468;2024-02-14T06:40:37;-2.60;99.90
29341;DHT22;16337;59.536;13.468;2024-02-14T06:43:03;-2.60;99.90
29341;DHT22;16337;59.536;13.468;2024-02-14T06:45:29;-2.60;99.90
29341;DHT22;16337;59.536;13.468;2024-02-14T06:47:55;-2.60;99.90
29341;DHT22;16337;59.536;13.468;2024-02-14T06:50:20;-2.60;99.90
29341;DHT22;16337;59.536;13.468;2024-02-14T06:52:46;-2.60;99.90
29341;DHT22;16337;59.536;13.468;2024-02-14T06:55:12;-2.50;99.90
29341;DHT22;16337;59.536;13.468;2024-02-14T06:57:38;-2.50;99.90
29341;DHT22;16337;59.536;13.468;2024-02-14T07:00:05;-2.40;99.90
29341;DHT22;16337;59.536;13.468;2024-02-14T07:02:32;-2.50;99.90
29341;DHT22;16337;59.536;13.468;2024-02-14T07:04:58;-2.50;99.90
29341;DHT22;16337;59.536;13.468;2024-02-14T07:07:23;-2.40;99.90
29341;DHT22;16337;59.536;13.468;2024-02-14T07:09:49;-2.40;99.90
29341;DHT22;16337;59.536;13.468;2024-02-14T07:12:15;-2.40;99.90
29341;DHT22;16337;59.536;13.468;2024-02-14T07:14:40;-2.30;99.90
29341;DHT22;16337;59.536;13.468;2024-02-14T07:17:06;-2.30;99.90
29341;DHT22;16337;59.536;13.468;2024-02-14T07:19:32;-2.30;99.90
29341;DHT22;16337;59.536;13.468;2024-02-14T07:21:58;-2.20;99.90
29341;DHT22;16337;59.536;13.468;2024-02-14T07:24:23;-2.20;99.90
29341;DHT22;16337;59.536;13.468;2024-02-14T07:26:49;-2.10;99.90
29341;DHT22;16337;59.536;13.468;2024-02-14T07:29:15;-2.10;99.90
29341;DHT22;16337;59.536;13.468;2024-02-14T07:31:40;-2.00;99.90
29341;DHT22;16337;59.536;13.468;2024-02-14T07:34:07;-2.00;99.90
29341;DHT22;16337;59.536;13.468;2024-02-14T07:36:32;-2.10;99.90
29341;DHT22;16337;59.536;13.468;2024-02-14T07:38:58;-2.00;99.90
29341;DHT22;16337;59.536;13.468;2024-02-14T07:41:24;-2.00;99.90
29341;DHT22;16337;59.536;13.468;2024-02-14T07:43:49;-1.90;99.90
29341;DHT22;16337;59.536;13.468;2024-02-14T07:46:19;-1.90;99.90
29341;DHT22;16337;59.536;13.468;2024-02-14T07:48:45;-1.90;99.90
29341;DHT22;16337;59.536;13.468;2024-02-14T07:51:11;-1.90;99.90
29341;DHT22;16337;59.536;13.468;2024-02-14T07:53:37;-1.90;99.90
29341;DHT22;16337;59.536;13.468;2024-02-14T07:56:04;-1.90;99.90
29341;DHT22;16337;59.536;13.468;2024-02-14T07:58:29;-1.90;99.90
29341;DHT22;16337;59.536;13.468;2024-02-14T08:00:55;-1.90;99.90
29341;DHT22;16337;59.536;13.468;2024-02-14T08:03:20;-1.80;99.90
29341;DHT22;16337;59.536;13.468;2024-02-14T08:05:46;-1.80;99.90
29341;DHT22;16337;59.536;13.468;2024-02-14T08:08:12;-1.80;99.90
29341;DHT22;16337;59.536;13.468;2024-02-14T08:10:37;-1.80;99.90
29341;DHT22;16337;59.536;13.468;2024-02-14T08:13:04;-1.70;99.90
29341;DHT22;16337;59.536;13.468;2024-02-14T08:15:30;-1.70;99.90
29341;DHT22;16337;59.536;13.468;2024-02-14T08:17:56;-1.60;99.90
29341;DHT22;16337;59.536;13.468;2024-02-14T08:20:22;-1.60;99.90
29341;DHT22;16337;59.536;13.468;2024-02-14T08:22:49;-1.50;99.90
29341;DHT22;16337;59.536;13.468;2024-02-14T08:25:15;-1.50;99.90
29341;DHT22;16337;59.536;13.468;2024-02-14T08:27:41;-1.50;99.90
29341;DHT22;16337;59.536;13.468;2024-02-14T08:30:07;-1.50;99.90
29341;DHT22;16337;59.536;13.468;2024-02-14T08:32:34;-1.40;99.90
29341;DHT22;16337;59.536;13.468;2024-02-14T08:35:00;-1.40;99.90
29341;DHT22;16337;59.536;13.468;2024-02-14T08:37:26;-1.30;99.90
29341;DHT22;16337;59.536;13.468;2024-02-14T08:39:52;-1.20;99.90
29341;DHT22;16337;59.536;13.468;2024-02-14T08:42:18;-1.20;99.90
29341;DHT22;16337;59.536;13.468;2024-02-14T08:44:44;-1.10;99.90
29341;DHT22;16337;59.536;13.468;2024-02-14T08:47:10;-1.00;99.90
29341;DHT22;16337;59.536;13.468;2024-02-14T08:49:36;-0.90;99.90
29341;DHT22;16337;59.536;13.468;2024-02-14T08:52:02;-0.70;99.90
29341;DHT22;16337;59.536;13.468;2024-02-14T08:54:28;-0.60;99.90
29341;DHT22;16337;59.536;13.468;2024-02-14T08:56:54;-0.40;99.90
29341;DHT22;16337;59.536;13.468;2024-02-14T08:59:21;-0.40;99.90
29341;DHT22;16337;59.536;13.468;2024-02-14T09:01:47;-0.20;99.90
29341;DHT22;16337;59.536;13.468;2024-02-14T09:04:13;0.10;99.90
29341;DHT22;16337;59.536;13.468;2024-02-14T09:06:39;0.20;99.90
29341;DHT22;16337;59.536;13.468;2024-02-14T09:09:06;0.20;99.90
29341;DHT22;16337;59.536;13.468;2024-02-14T09:11:32;0.20;99.90
29341;DHT22;16337;59.536;13.468;2024-02-14T09:13:58;0.50;99.90
29341;DHT22;16337;59.536;13.468;2024-02-14T09:16:30;0.60;99.90
29341;DHT22;16337;59.536;13.468;2024-02-14T09:18:56;0.50;99.90
29341;DHT22;16337;59.536;13.468;2024-02-14T09:21:23;0.50;99.90
29341;DHT22;16337;59.536;13.468;2024-02-14T09:23:49;0.50;99.90
29341;DHT22;16337;59.536;13.468;2024-02-14T09:26:15;0.50;99.90
29341;DHT22;16337;59.536;13.468;2024-02-14T09:28:42;0.60;99.90
29341;DHT22;16337;59.536;13.468;2024-02-14T09:31:08;0.70;99.90
29341;DHT22;16337;59.536;13.468;2024-02-14T09:33:37;0.80;99.90
29341;DHT22;16337;59.536;13.468;2024-02-14T09:36:03;0.80;99.90
29341;DHT22;16337;59.536;13.468;2024-02-14T09:38:30;0.80;99.90
29341;DHT22;16337;59.536;13.468;2024-02-14T09:41:03;0.70;99.90
29341;DHT22;16337;59.536;13.468;2024-02-14T09:43:43;0.70;99.90
29341;DHT22;16337;59.536;13.468;2024-02-14T09:46:12;0.60;99.90
29341;DHT22;16337;59.536;13.468;2024-02-14T09:48:38;0.50;99.90
29341;DHT22;16337;59.536;13.468;2024-02-14T09:51:06;0.50;99.90
29341;DHT22;16337;59.536;13.468;2024-02-14T09:53:32;0.40;99.90
29341;DHT22;16337;59.536;13.468;2024-02-14T09:55:59;0.40;99.90
29341;DHT22;16337;59.536;13.468;2024-02-14T09:58:26;0.40;99.90
29341;DHT22;16337;59.536;13.468;2024-02-14T10:00:53;0.50;99.90
29341;DHT22;16337;59.536;13.468;2024-02-14T10:03:19;0.70;99.90
29341;DHT22;16337;59.536;13.468;2024-02-14T10:05:44;0.90;99.90
29341;DHT22;16337;59.536;13.468;2024-02-14T10:08:11;0.90;99.90
29341;DHT22;16337;59.536;13.468;2024-02-14T10:10:38;0.70;99.90
29341;DHT22;16337;59.536;13.468;2024-02-14T10:13:04;0.70;99.90
29341;DHT22;16337;59.536;13.468;2024-02-14T10:15:31;0.70;99.90
29341;DHT22;16337;59.536;13.468;2024-02-14T10:17:58;0.70;99.90
29341;DHT22;16337;59.536;13.468;2024-02-14T10:20:25;0.70;99.90
29341;DHT22;16337;59.536;13.468;2024-02-14T10:23:00;0.80;99.90
29341;DHT22;16337;59.536;13.468;2024-02-14T10:25:26;0.90;99.90
29341;DHT22;16337;59.536;13.468;2024-02-14T10:27:51;1.20;99.90
29341;DHT22;16337;59.536;13.468;2024-02-14T10:30:17;1.50;99.90
29341;DHT22;16337;59.536;13.468;2024-02-14T10:32:42;1.70;99.90
29341;DHT22;16337;59.536;13.468;2024-02-14T10:35:22;1.90;99.90
29341;DHT22;16337;59.536;13.468;2024-02-14T10:37:48;2.00;99.90
29341;DHT22;16337;59.536;13.468;2024-02-14T10:40:14;1.90;99.90
29341;DHT22;16337;59.536;13.468;2024-02-14T10:42:40;2.00;99.90
29341;DHT22;16337;59.536;13.468;2024-02-14T10:45:06;1.90;99.90
29341;DHT22;16337;59.536;13.468;2024-02-14T10:47:35;1.80;99.90
29341;DHT22;16337;59.536;13.468;2024-02-14T10:50:06;1.80;99.90
29341;DHT22;16337;59.536;13.468;2024-02-14T10:52:37;1.60;99.90
29341;DHT22;16337;59.536;13.468;2024-02-14T10:55:06;1.70;99.90
29341;DHT22;16337;59.536;13.468;2024-02-14T10:57:32;1.60;99.90
29341;DHT22;16337;59.536;13.468;2024-02-14T11:00:02;1.60;99.90
29341;DHT22;16337;59.536;13.468;2024-02-14T11:02:28;1.70;99.90
29341;DHT22;16337;59.536;13.468;2024-02-14T11:04:56;1.60;99.90
29341;DHT22;16337;59.536;13.468;2024-02-14T11:07:22;1.70;99.90
29341;DHT22;16337;59.536;13.468;2024-02-14T11:10:06;1.70;99.90
29341;DHT22;16337;59.536;13.468;2024-02-14T11:12:36;1.80;99.90
29341;DHT22;16337;59.536;13.468;2024-02-14T11:15:11;2.00;99.90
29341;DHT22;16337;59.536;13.468;2024-02-14T11:17:39;2.20;99.90
29341;DHT22;16337;59.536;13.468;2024-02-14T11:23:03;2.50;99.90
29341;DHT22;16337;59.536;13.468;2024-02-14T11:25:31;2.70;99.90
29341;DHT22;16337;59.536;13.468;2024-02-14T11:27:58;2.90;99.90
29341;DHT22;16337;59.536;13.468;2024-02-14T11:30:36;3.10;99.90
29341;DHT22;16337;59.536;13.468;2024-02-14T11:33:24;3.10;99.90
29341;DHT22;16337;59.536;13.468;2024-02-14T11:35:51;3.00;99.90
29341;DHT22;16337;59.536;13.468;2024-02-14T11:38:19;2.90;99.90
29341;DHT22;16337;59.536;13.468;2024-02-14T11:40:45;2.90;99.90
29341;DHT22;16337;59.536;13.468;2024-02-14T11:43:15;3.20;99.90
29341;DHT22;16337;59.536;13.468;2024-02-14T11:45:42;3.10;99.90
29341;DHT22;16337;59.536;13.468;2024-02-14T11:48:12;2.90;99.90
29341;DHT22;16337;59.536;13.468;2024-02-14T11:50:43;2.80;99.90
29341;DHT22;16337;59.536;13.468;2024-02-14T11:53:16;2.70;99.90
29341;DHT22;16337;59.536;13.468;2024-02-14T11:55:43;2.90;99.90
29341;DHT22;16337;59.536;13.468;2024-02-14T11:58:09;2.90;99.90
29341;DHT22;16337;59.536;13.468;2024-02-14T12:00:48;2.90;99.90
29341;DHT22;16337;59.536;13.468;2024-02-14T12:03:18;2.80;99.90
29341;DHT22;16337;59.536;13.468;2024-02-14T12:05:51;2.80;99.90
29341;DHT22;16337;59.536;13.468;2024-02-14T12:08:17;2.80;99.90
29341;DHT22;16337;59.536;13.468;2024-02-14T12:10:44;2.90;99.90
29341;DHT22;16337;59.536;13.468;2024-02-14T12:13:16;2.90;99.90
29341;DHT22;16337;59.536;13.468;2024-02-14T12:15:45;3.00;99.90
29341;DHT22;16337;59.536;13.468;2024-02-14T12:18:11;3.10;99.90
29341;DHT22;16337;59.536;13.468;2024-02-14T12:20:42;3.10;99.90
29341;DHT22;16337;59.536;13.468;2024-02-14T12:23:18;3.00;99.90
29341;DHT22;16337;59.536;13.468;2024-02-14T12:25:45;3.00;99.90
29341;DHT22;16337;59.536;13.468;2024-02-14T12:28:18;3.00;99.90
29341;DHT22;16337;59.536;13.468;2024-02-14T12:30:46;3.00;99.90
29341;DHT22;16337;59.536;13.468;2024-02-14T12:33:17;3.00;99.90
29341;DHT22;16337;59.536;13.468;2024-02-14T12:35:48;2.90;99.90
29341;DHT22;16337;59.536;13.468;2024-02-14T12:38:15;2.90;99.90
29341;DHT22;16337;59.536;13.468;2024-02-14T12:40:41;2.90;99.90
29341;DHT22;16337;59.536;13.468;2024-02-14T12:43:12;2.90;99.90
29341;DHT22;16337;59.536;13.468;2024-02-14T12:45:38;2.80;99.90
29341;DHT22;16337;59.536;13.468;2024-02-14T12:48:05;2.70;99.90
29341;DHT22;16337;59.536;13.468;2024-02-14T12:50:31;2.60;99.90
29341;DHT22;16337;59.536;13.468;2024-02-14T12:52:57;2.60;99.90
29341;DHT22;16337;59.536;13.468;2024-02-14T12:55:24;2.50;99.90
29341;DHT22;16337;59.536;13.468;2024-02-14T12:57:51;2.50;99.90
29341;DHT22;16337;59.536;13.468;2024-02-14T13:00:17;2.50;99.90
29341;DHT22;16337;59.536;13.468;2024-02-14T13:02:43;2.50;99.90
29341;DHT22;16337;59.536;13.468;2024-02-14T13:05:09;2.50;99.90
29341;DHT22;16337;59.536;13.468;2024-02-14T13:07:35;2.60;99.90
29341;DHT22;16337;59.536;13.468;2024-02-14T13:10:00;2.60;99.90
29341;DHT22;16337;59.536;13.468;2024-02-14T13:12:28;2.60;99.90
29341;DHT22;16337;59.536;13.468;2024-02-14T13:14:54;2.60;99.90
29341;DHT22;16337;59.536;13.468;2024-02-14T13:17:20;2.50;99.90
29341;DHT22;16337;59.536;13.468;2024-02-14T13:19:46;2.50;99.90
29341;DHT22;16337;59.536;13.468;2024-02-14T13:22:15;2.50;99.90
29341;DHT22;16337;59.536;13.468;2024-02-14T13:24:41;2.40;99.90
29341;DHT22;16337;59.536;13.468;2024-02-14T13:27:07;2.40;99.90
29341;DHT22;16337;59.536;13.468;2024-02-14T13:29:32;2.40;99.90
29341;DHT22;16337;59.536;13.468;2024-02-14T13:31:58;2.40;99.90
29341;DHT22;16337;59.536;13.468;2024-02-14T13:34:26;2.30;99.90
29341;DHT22;16337;59.536;13.468;2024-02-14T13:36:51;2.30;99.90
29341;DHT22;16337;59.536;13.468;2024-02-14T13:39:17;2.30;99.90
29341;DHT22;16337;59.536;13.468;2024-02-14T13:41:42;2.40;99.90
29341;DHT22;16337;59.536;13.468;2024-02-14T13:44:10;2.40;99.90
29341;DHT22;16337;59.536;13.468;2024-02-14T13:46:36;2.50;99.90
29341;DHT22;16337;59.536;13.468;2024-02-14T13:49:02;2.50;99.90
29341;DHT22;16337;59.536;13.468;2024-02-14T13:51:28;2.50;99.90
29341;DHT22;16337;59.536;13.468;2024-02-14T13:53:54;2.50;99.90
29341;DHT22;16337;59.536;13.468;2024-02-14T13:56:21;2.40;99.90
29341;DHT22;16337;59.536;13.468;2024-02-14T13:58:48;2.40;99.90
29341;DHT22;16337;59.536;13.468;2024-02-14T14:01:17;2.30;99.90
29341;DHT22;16337;59.536;13.468;2024-02-14T14:03:43;2.10;99.90
29341;DHT22;16337;59.536;13.468;2024-02-14T14:06:08;2.10;99.90
29341;DHT22;16337;59.536;13.468;2024-02-14T14:08:35;2.00;99.90
29341;DHT22;16337;59.536;13.468;2024-02-14T14:11:02;2.00;99.90
29341;DHT22;16337;59.536;13.468;2024-02-14T14:13:29;2.10;99.90
29341;DHT22;16337;59.536;13.468;2024-02-14T14:15:57;2.00;99.90
29341;DHT22;16337;59.536;13.468;2024-02-14T14:18:22;2.00;99.90
29341;DHT22;16337;59.536;13.468;2024-02-14T14:20:49;2.00;99.90
29341;DHT22;16337;59.536;13.468;2024-02-14T14:23:14;2.00;99.90
29341;DHT22;16337;59.536;13.468;2024-02-14T14:25:41;2.00;99.90
29341;DHT22;16337;59.536;13.468;2024-02-14T14:28:07;2.00;99.90
29341;DHT22;16337;59.536;13.468;2024-02-14T14:30:37;2.00;99.90
29341;DHT22;16337;59.536;13.468;2024-02-14T14:33:04;2.00;99.90
29341;DHT22;16337;59.536;13.468;2024-02-14T14:35:30;2.00;99.90
29341;DHT22;16337;59.536;13.468;2024-02-14T14:37:59;2.00;99.90
29341;DHT22;16337;59.536;13.468;2024-02-14T14:40:25;1.90;99.90
29341;DHT22;16337;59.536;13.468;2024-02-14T14:42:52;1.80;99.90
29341;DHT22;16337;59.536;13.468;2024-02-14T14:45:18;1.80;99.90
29341;DHT22;16337;59.536;13.468;2024-02-14T14:47:44;1.70;99.90
29341;DHT22;16337;59.536;13.468;2024-02-14T14:50:10;1.60;99.90
29341;DHT22;16337;59.536;13.468;2024-02-14T14:52:36;1.60;99.90
29341;DHT22;16337;59.536;13.468;2024-02-14T14:55:04;1.70;99.90
29341;DHT22;16337;59.536;13.468;2024-02-14T14:57:29;1.60;99.90
29341;DHT22;16337;59.536;13.468;2024-02-14T14:59:55;1.60;99.90
29341;DHT22;16337;59.536;13.468;2024-02-14T15:02:21;1.60;99.90
29341;DHT22;16337;59.536;13.468;2024-02-14T15:04:50;1.60;99.90
29341;DHT22;16337;59.536;13.468;2024-02-14T15:07:16;1.60;99.90
29341;DHT22;16337;59.536;13.468;2024-02-14T15:09:45;1.60;99.90
29341;DHT22;16337;59.536;13.468;2024-02-14T15:12:11;1.50;99.90
29341;DHT22;16337;59.536;13.468;2024-02-14T15:14:37;1.50;99.90
29341;DHT22;16337;59.536;13.468;2024-02-14T15:17:03;1.50;99.90
29341;DHT22;16337;59.536;13.468;2024-02-14T15:19:30;1.50;99.90
29341;DHT22;16337;59.536;13.468;2024-02-14T15:21:56;1.50;99.90
29341;DHT22;16337;59.536;13.468;2024-02-14T15:24:23;1.50;99.90